Time;durP1;ratioP1;P1;durP2;ratioP2;P2;SDS_P1;SDS_P2;PMS_P1;PMS_P2;Temp;Humidity;BMP_temperature;BMP_pressure;BME280_temperature;BME280_humidity;BME280_pressure;Samples;Min_cycle;Max_cycle;Signal;HPM_P1;HPM_P2
2021/01/15 00:01:07;;;;;;;8.18;5.00;;;;;;;-3.00;82.17;94658.16;5085634;28;20449;-70
2021/01/15 00:03:39;;;;;;;5.97;3.80;;;;;;;-2.98;80.92;94654.50;5068801;28;20562;-70
2021/01/15 00:06:06;;;;;;;8.02;4.25;;;;;;;-2.95;81.17;94658.50;5085998;28;20071;-70
2021/01/15 00:08:40;;;;;;;10.85;5.05;;;;;;;-3.01;81.28;94659.91;5085625;28;20029;-71
2021/01/15 00:11:21;;;;;;;10.70;5.13;;;;;;;-3.00;81.31;94660.72;5085928;28;20036;-68
2021/01/15 00:13:47;;;;;;;20.83;6.07;;;;;;;-3.13;81.84;94661.13;5085263;28;20048;-68
2021/01/15 00:16:33;;;;;;;18.77;6.18;;;;;;;-3.04;82.30;94675.50;5069039;28;20424;-68
2021/01/15 00:19:01;;;;;;;19.55;6.47;;;;;;;-3.07;82.23;94680.91;5067961;28;20044;-68
2021/01/15 00:21:28;;;;;;;14.02;6.75;;;;;;;-3.01;82.46;94679.50;5085789;28;20474;-68
2021/01/15 00:23:57;;;;;;;9.80;5.70;;;;;;;-3.05;81.84;94681.53;5086664;28;20040;-69
2021/01/15 00:26:25;;;;;;;17.55;5.78;;;;;;;-3.07;82.25;94681.69;5067882;28;20046;-68
2021/01/15 00:28:52;;;;;;;8.90;5.45;;;;;;;-3.02;82.10;94688.88;5086887;28;20119;-68
2021/01/15 00:31:19;;;;;;;14.80;7.03;;;;;;;-3.03;81.60;94682.19;5068829;28;20051;-69
2021/01/15 00:33:46;;;;;;;9.88;5.78;;;;;;;-2.94;81.90;94686.38;5086651;28;20109;-68
2021/01/15 00:36:12;;;;;;;13.07;6.57;;;;;;;-2.89;82.03;94686.72;5067431;28;20048;-69
2021/01/15 00:38:39;;;;;;;9.20;4.75;;;;;;;-2.97;82.20;94696.88;5085498;28;20508;-68
2021/01/15 00:41:09;;;;;;;9.40;5.30;;;;;;;-2.97;82.02;94696.88;5086759;28;20475;-68
2021/01/15 00:43:36;;;;;;;9.52;5.80;;;;;;;-3.03;81.80;94691.59;5085985;28;20059;-68
2021/01/15 00:46:07;;;;;;;12.50;6.18;;;;;;;-3.09;82.34;94687.91;5085992;28;20048;-68
2021/01/15 00:48:35;;;;;;;10.00;6.30;;;;;;;-3.11;82.79;94694.88;5068818;28;20425;-68
2021/01/15 00:51:11;;;;;;;11.43;6.85;;;;;;;-2.99;82.28;94698.78;5086387;28;20040;-68
2021/01/15 00:53:38;;;;;;;10.18;5.32;;;;;;;-3.14;82.43;94685.00;5066453;28;20425;-68
2021/01/15 00:56:04;;;;;;;9.65;4.90;;;;;;;-3.10;83.02;94696.47;5085441;28;20059;-68
2021/01/15 00:58:31;;;;;;;13.27;6.63;;;;;;;-3.08;83.10;94694.56;5068415;28;20047;-69
2021/01/15 01:00:57;;;;;;;9.88;6.22;;;;;;;-3.12;82.88;94709.34;5068187;28;20048;-69
2021/01/15 01:03:39;;;;;;;14.35;6.35;;;;;;;-3.18;82.94;94699.78;5068317;28;20459;-68
2021/01/15 01:06:12;;;;;;;12.25;6.55;;;;;;;-3.19;82.78;94715.19;5086427;28;20036;-68
2021/01/15 01:08:40;;;;;;;10.90;7.00;;;;;;;-3.11;83.25;94715.28;5086570;28;20109;-68
2021/01/15 01:11:24;;;;;;;11.77;6.63;;;;;;;-3.09;83.61;94724.34;5086342;28;20074;-68
2021/01/15 01:13:53;;;;;;;8.63;4.57;;;;;;;-3.11;83.53;94720.38;5068144;28;20040;-68
2021/01/15 01:16:21;;;;;;;12.02;6.22;;;;;;;-3.04;83.60;94721.38;5086134;28;20043;-68
2021/01/15 01:18:49;;;;;;;14.50;6.50;;;;;;;-3.03;83.30;94728.06;5086346;28;20114;-68
2021/01/15 01:21:16;;;;;;;12.65;7.20;;;;;;;-2.92;83.22;94730.38;5085229;28;20066;-69
2021/01/15 01:23:43;;;;;;;13.13;6.30;;;;;;;-3.03;83.38;94728.06;5086119;28;20063;-69
2021/01/15 01:26:13;;;;;;;11.20;6.45;;;;;;;-3.03;83.96;94730.59;5085841;28;20079;-68
2021/01/15 01:28:42;;;;;;;11.60;7.38;;;;;;;-3.08;84.34;94720.06;5068109;28;20533;-69
2021/01/15 01:31:13;;;;;;;10.27;6.85;;;;;;;-3.00;84.18;94724.41;5085933;28;20044;-68
2021/01/15 01:33:39;;;;;;;9.77;6.28;;;;;;;-2.99;83.72;94715.81;5068092;28;20406;-68
2021/01/15 01:36:07;;;;;;;15.85;8.27;;;;;;;-3.04;83.91;94721.38;5068334;28;20143;-69
2021/01/15 01:38:33;;;;;;;14.23;7.70;;;;;;;-2.96;83.90;94713.75;5090043;28;20038;-69
2021/01/15 01:41:00;;;;;;;11.55;7.03;;;;;;;-2.93;83.95;94718.56;5089767;28;20036;-68
2021/01/15 01:43:26;;;;;;;11.65;7.82;;;;;;;-2.95;84.15;94720.47;5053966;28;20063;-69
2021/01/15 01:45:54;;;;;;;15.60;7.10;;;;;;;-2.92;83.88;94714.25;5089701;28;20111;-68
2021/01/15 01:48:22;;;;;;;14.90;7.10;;;;;;;-2.97;84.16;94717.28;5089951;28;20043;-69
2021/01/15 01:50:52;;;;;;;13.38;7.97;;;;;;;-3.00;84.80;94730.31;5089181;28;20477;-68
2021/01/15 01:53:22;;;;;;;13.95;8.45;;;;;;;-3.02;85.02;94719.47;5087974;28;20050;-69
2021/01/15 01:55:49;;;;;;;12.95;8.32;;;;;;;-3.05;84.79;94724.84;5088136;28;20477;-70
2021/01/15 01:58:17;;;;;;;15.90;9.05;;;;;;;-3.18;84.98;94714.28;5089616;28;20039;-69
2021/01/15 02:00:46;;;;;;;24.63;11.70;;;;;;;-3.19;85.46;94733.03;5072121;28;20048;-69
2021/01/15 02:03:16;;;;;;;17.55;8.63;;;;;;;-3.22;85.23;94730.78;5088730;28;20483;-69
2021/01/15 02:05:43;;;;;;;13.77;8.48;;;;;;;-3.23;84.63;94719.00;5089184;28;20455;-70
2021/01/15 02:08:10;;;;;;;19.10;9.05;;;;;;;-3.10;84.57;94739.78;5071068;28;20056;-70
2021/01/15 02:10:44;;;;;;;11.25;7.28;;;;;;;-3.03;84.72;94738.25;5088585;28;20078;-70
2021/01/15 02:13:22;;;;;;;14.48;8.07;;;;;;;-2.98;84.86;94735.25;5071092;28;20081;-70
2021/01/15 02:16:01;;;;;;;14.15;9.15;;;;;;;-3.07;85.08;94731.84;5089235;28;20121;-69
2021/01/15 02:18:54;;;;;;;16.15;8.48;;;;;;;-3.01;84.81;94743.19;5089468;28;20048;-69
2021/01/15 02:21:48;;;;;;;15.50;8.60;;;;;;;-2.94;84.79;94737.34;5089249;28;20044;-69
2021/01/15 02:24:27;;;;;;;14.50;7.93;;;;;;;-2.92;84.43;94727.81;5089072;28;20592;-69
2021/01/15 02:27:06;;;;;;;16.33;8.95;;;;;;;-2.95;84.39;94735.75;5088938;28;20043;-69
2021/01/15 02:29:33;;;;;;;16.55;9.00;;;;;;;-2.98;83.98;94730.94;5088952;28;20044;-69
2021/01/15 02:32:11;;;;;;;14.23;7.28;;;;;;;-3.04;84.10;94741.75;5088609;28;20123;-69
2021/01/15 02:34:58;;;;;;;13.27;8.02;;;;;;;-3.00;84.40;94743.03;5088796;28;20056;-69
2021/01/15 02:37:49;;;;;;;10.98;7.05;;;;;;;-3.00;84.07;94737.94;5070433;28;20024;-69
2021/01/15 02:40:22;;;;;;;16.52;7.63;;;;;;;-2.97;84.39;94752.94;5070570;28;20036;-69
2021/01/15 02:42:51;;;;;;;12.15;7.40;;;;;;;-2.92;84.37;94745.66;5070461;28;20144;-69
2021/01/15 02:45:19;;;;;;;13.88;8.27;;;;;;;-2.92;83.94;94742.28;5088512;28;20496;-69
2021/01/15 02:47:48;;;;;;;11.32;7.25;;;;;;;-2.91;83.79;94749.78;5088286;28;20480;-70
2021/01/15 02:50:26;;;;;;;14.05;7.80;;;;;;;-2.91;84.25;94749.00;5070616;28;20048;-69
2021/01/15 02:52:56;;;;;;;14.15;8.45;;;;;;;-2.99;83.98;94733.66;5088428;28;20047;-69
2021/01/15 02:55:24;;;;;;;12.35;7.88;;;;;;;-2.88;83.75;94752.06;5084954;28;20028;-70
2021/01/15 02:57:51;;;;;;;12.32;8.23;;;;;;;-2.99;83.99;94744.66;5088241;28;20093;-69
2021/01/15 03:00:20;;;;;;;13.50;8.18;;;;;;;-2.78;83.72;94746.06;5088508;28;20059;-69
2021/01/15 03:02:52;;;;;;;21.13;10.60;;;;;;;-2.81;83.74;94741.25;5088768;28;22123;-69
2021/01/15 03:05:21;;;;;;;14.93;8.65;;;;;;;-2.77;83.85;94743.34;5087296;28;20074;-69
2021/01/15 03:07:51;;;;;;;13.90;8.52;;;;;;;-2.65;84.01;94755.84;5088132;28;20378;-70
2021/01/15 03:10:24;;;;;;;16.88;8.80;;;;;;;-2.66;83.48;94757.59;5088574;28;20044;-69
2021/01/15 03:12:53;;;;;;;14.68;8.85;;;;;;;-2.57;83.77;94763.53;5088010;28;20119;-69
2021/01/15 03:15:20;;;;;;;15.77;9.65;;;;;;;-2.58;83.59;94765.28;5086914;28;20043;-69
2021/01/15 03:17:49;;;;;;;16.23;9.10;;;;;;;-2.66;83.09;94770.34;5088167;28;20032;-69
2021/01/15 03:20:16;;;;;;;19.80;8.93;;;;;;;-2.76;83.19;94774.75;5070583;28;20119;-69
2021/01/15 03:22:46;;;;;;;13.70;7.65;;;;;;;-2.80;83.82;94776.00;5087827;28;20115;-68
2021/01/15 03:25:14;;;;;;;15.35;8.13;;;;;;;-2.83;84.52;94773.72;5088020;28;20048;-70
2021/01/15 03:27:51;;;;;;;15.38;9.25;;;;;;;-2.77;84.52;94773.94;5087784;28;20503;-69
2021/01/15 03:30:20;;;;;;;15.30;9.13;;;;;;;-2.85;84.99;94775.63;5069285;28;20142;-69
2021/01/15 03:32:51;;;;;;;17.88;9.05;;;;;;;-2.91;85.08;94772.72;5087605;28;20125;-69
2021/01/15 03:35:25;;;;;;;15.00;8.60;;;;;;;-2.94;85.38;94772.22;5088079;28;20481;-69
2021/01/15 03:38:04;;;;;;;14.17;8.43;;;;;;;-2.83;85.08;94763.53;5087677;28;20044;-69
2021/01/15 03:40:35;;;;;;;14.82;8.75;;;;;;;-2.99;85.48;94770.16;5087971;28;21061;-69
2021/01/15 03:43:16;;;;;;;14.93;7.40;;;;;;;-3.07;86.01;94762.44;5069018;28;20047;-69
2021/01/15 03:45:47;;;;;;;15.40;8.77;;;;;;;-2.98;85.87;94766.63;5087819;28;20499;-70
2021/01/15 03:48:15;;;;;;;13.95;8.73;;;;;;;-3.00;85.59;94760.88;5087556;28;20040;-70
2021/01/15 03:50:42;;;;;;;16.13;8.73;;;;;;;-3.09;85.53;94754.94;5087401;28;20063;-70
2021/01/15 03:53:08;;;;;;;15.38;8.95;;;;;;;-3.12;85.52;94754.44;5086220;28;20032;-69
2021/01/15 03:55:35;;;;;;;13.93;8.52;;;;;;;-3.28;86.05;94745.72;5066605;28;20424;-69
2021/01/15 03:58:01;;;;;;;17.10;10.13;;;;;;;-3.12;85.88;94754.44;5087055;28;20036;-70
2021/01/15 04:00:28;;;;;;;16.17;9.35;;;;;;;-3.07;85.60;94763.22;5085405;28;20071;-69
2021/01/15 04:02:54;;;;;;;14.55;8.80;;;;;;;-2.98;85.00;94769.19;5086895;28;20036;-69
2021/01/15 04:05:20;;;;;;;12.27;8.30;;;;;;;-2.98;84.87;94766.63;5086296;28;20052;-70
2021/01/15 04:07:47;;;;;;;12.85;7.80;;;;;;;-2.99;84.41;94769.31;5068590;28;20087;-70
2021/01/15 04:10:15;;;;;;;16.38;8.90;;;;;;;-3.12;84.48;94770.50;5086974;28;20417;-70
2021/01/15 04:12:43;;;;;;;18.17;9.80;;;;;;;-3.06;84.57;94774.22;5069045;28;20040;-70
2021/01/15 04:15:10;;;;;;;12.32;7.85;;;;;;;-3.00;84.42;94788.91;5085293;28;20062;-70
2021/01/15 04:17:37;;;;;;;12.32;7.85;;;;;;;-3.11;84.52;94776.41;5068628;28;20036;-70
2021/01/15 04:20:05;;;;;;;15.07;8.63;;;;;;;-3.02;84.29;94784.94;5086659;28;20090;-70
2021/01/15 04:22:35;;;;;;;14.25;8.57;;;;;;;-2.84;84.08;94792.53;5086436;28;20046;-70
2021/01/15 04:25:03;;;;;;;13.63;8.65;;;;;;;-2.90;83.75;94792.19;5086624;28;20043;-71
2021/01/15 04:27:30;;;;;;;15.15;8.82;;;;;;;-2.87;83.56;94793.63;5086516;28;20045;-71
2021/01/15 04:29:57;;;;;;;14.13;8.13;;;;;;;-2.76;83.46;94805.31;5086951;28;20044;-71
2021/01/15 04:32:25;;;;;;;14.02;8.05;;;;;;;-2.81;83.31;94797.31;5086493;28;20040;-71
2021/01/15 04:34:51;;;;;;;12.48;8.40;;;;;;;-2.75;82.97;94804.38;5086405;28;20031;-71
2021/01/15 04:37:18;;;;;;;38.45;17.15;;;;;;;-2.62;82.96;94816.75;5086651;28;20428;-71
2021/01/15 04:39:45;;;;;;;15.50;10.30;;;;;;;-2.71;82.99;94818.44;5051805;28;20493;-71
2021/01/15 04:42:14;;;;;;;13.85;8.52;;;;;;;-2.77;83.12;94824.13;5086305;28;20413;-71
2021/01/15 04:44:45;;;;;;;15.10;8.65;;;;;;;-2.96;83.30;94820.78;5086093;28;20078;-71
2021/01/15 04:47:11;;;;;;;11.07;7.50;;;;;;;-3.05;83.85;94821.69;5068422;28;20048;-71
2021/01/15 04:49:39;;;;;;;11.75;7.22;;;;;;;-3.01;83.77;94812.78;5086141;28;20036;-69
2021/01/15 04:52:13;;;;;;;12.60;8.25;;;;;;;-2.98;83.72;94802.31;5086279;28;20032;-69
2021/01/15 04:54:42;;;;;;;17.75;9.18;;;;;;;-3.01;84.16;94817.88;5065298;28;20047;-69
2021/01/15 04:57:10;;;;;;;14.15;9.15;;;;;;;-2.95;84.28;94812.22;5085333;28;20036;-69
2021/01/15 04:59:49;;;;;;;12.27;7.78;;;;;;;-3.05;83.87;94805.59;5068380;28;20044;-69
2021/01/15 05:02:17;;;;;;;18.45;10.57;;;;;;;-3.10;83.86;94813.69;5086252;28;20078;-69
2021/01/15 05:04:44;;;;;;;16.08;9.77;;;;;;;-3.05;83.86;94816.59;5086437;28;20063;-69
2021/01/15 05:07:14;;;;;;;13.82;9.07;;;;;;;-2.95;83.87;94822.41;5085800;28;20035;-69
2021/01/15 05:09:45;;;;;;;12.20;7.95;;;;;;;-2.90;83.98;94825.31;5085888;28;20044;-69
2021/01/15 05:12:13;;;;;;;13.13;8.45;;;;;;;-2.96;83.57;94809.81;5088412;28;20046;-70
2021/01/15 05:14:47;;;;;;;12.52;8.77;;;;;;;-2.82;83.54;94811.03;5090020;28;20493;-70
2021/01/15 05:17:15;;;;;;;12.07;7.57;;;;;;;-2.83;83.16;94814.53;5089959;28;20098;-70
2021/01/15 05:19:45;;;;;;;15.73;9.38;;;;;;;-2.86;83.69;94804.63;5071061;28;20040;-69
2021/01/15 05:22:12;;;;;;;19.10;9.50;;;;;;;-2.77;83.41;94824.13;5089303;28;20050;-70
2021/01/15 05:24:39;;;;;;;14.65;8.93;;;;;;;-2.75;83.41;94812.03;5090280;28;20040;-71
2021/01/15 05:30:21;;;;;;;28.35;15.50;;;;;;;-2.84;83.18;94833.31;5089426;28;20489;-71
2021/01/15 05:32:49;;;;;;;13.85;7.93;;;;;;;-2.94;82.66;94834.19;5090484;28;20048;-70
2021/01/15 05:35:16;;;;;;;14.13;9.27;;;;;;;-2.84;82.94;94843.53;5089857;28;20039;-70
2021/01/15 05:37:53;;;;;;;12.98;8.40;;;;;;;-2.85;82.88;94847.00;5089629;28;20115;-70
2021/01/15 05:40:37;;;;;;;16.25;8.35;;;;;;;-2.89;82.70;94847.28;5089455;28;20437;-70
2021/01/15 05:43:05;;;;;;;14.33;8.97;;;;;;;-2.88;82.63;94838.72;5089986;28;20076;-70
2021/01/15 05:45:31;;;;;;;22.50;13.68;;;;;;;-2.75;82.78;94847.72;5090195;28;20129;-70
2021/01/15 05:47:59;;;;;;;34.78;19.27;;;;;;;-2.63;82.52;94851.66;5070174;28;20067;-70
2021/01/15 05:50:39;;;;;;;31.50;16.23;;;;;;;-2.66;82.67;94857.03;5090100;28;20497;-70
2021/01/15 05:53:06;;;;;;;25.35;15.90;;;;;;;-2.83;83.27;94850.22;5071166;28;20036;-71
2021/01/15 05:55:33;;;;;;;20.25;13.63;;;;;;;-2.65;83.31;94862.94;5086960;28;20587;-70
2021/01/15 05:58:10;;;;;;;16.00;10.07;;;;;;;-2.65;83.03;94858.63;5089475;28;20032;-70
2021/01/15 06:00:38;;;;;;;17.63;10.57;;;;;;;-2.67;82.98;94860.53;5088600;28;20040;-69
2021/01/15 06:03:06;;;;;;;15.23;9.18;;;;;;;-2.69;82.79;94872.63;5071229;28;20471;-70
2021/01/15 06:05:34;;;;;;;15.82;9.35;;;;;;;-2.74;82.43;94879.91;5088094;28;20040;-70
2021/01/15 06:08:02;;;;;;;19.63;8.95;;;;;;;-2.76;82.34;94881.81;5088118;28;20044;-71
2021/01/15 06:10:40;;;;;;;16.73;10.90;;;;;;;-2.72;82.32;94878.00;5088110;28;20044;-70
2021/01/15 06:13:07;;;;;;;14.80;8.63;;;;;;;-2.69;82.03;94885.38;5087675;28;20149;-70
2021/01/15 06:15:46;;;;;;;12.00;7.72;;;;;;;-2.83;82.25;94880.78;5088569;28;20521;-70
2021/01/15 06:18:17;;;;;;;22.23;12.05;;;;;;;-2.82;82.89;94892.59;5089005;28;20664;-70
2021/01/15 06:20:45;;;;;;;22.48;11.70;;;;;;;-2.88;83.47;94884.59;5088360;28;20424;-71
2021/01/15 06:23:14;;;;;;;14.73;9.35;;;;;;;-2.84;83.38;94902.16;5087971;28;20541;-71
2021/01/15 06:25:58;;;;;;;23.20;11.57;;;;;;;-2.83;83.76;94906.28;5070436;28;20036;-71
2021/01/15 06:28:33;;;;;;;19.05;11.88;;;;;;;-2.84;83.91;94899.59;5088643;28;20036;-70
2021/01/15 06:31:05;;;;;;;26.83;12.23;;;;;;;-2.77;83.61;94906.50;5070014;28;20481;-70
2021/01/15 06:33:31;;;;;;;42.58;18.85;;;;;;;-2.70;83.59;94916.94;5087951;28;20071;-71
2021/01/15 06:35:58;;;;;;;29.83;13.63;;;;;;;-2.79;83.67;94903.31;5043206;28;20062;-71
2021/01/15 06:38:30;;;;;;;106.65;37.28;;;;;;;-2.68;83.69;94915.03;5087481;28;20428;-71
2021/01/15 06:40:58;;;;;;;27.02;12.82;;;;;;;-2.62;83.50;94919.53;5087753;28;20485;-70
2021/01/15 06:43:29;;;;;;;31.08;13.65;;;;;;;-2.69;83.78;94928.72;5066577;28;20559;-70
2021/01/15 06:46:04;;;;;;;30.10;13.65;;;;;;;-2.73;84.18;94927.41;5068308;28;20051;-70
2021/01/15 06:48:34;;;;;;;62.75;25.38;;;;;;;-2.65;84.91;94934.31;5067916;28;20090;-70
2021/01/15 06:51:03;;;;;;;65.53;23.85;;;;;;;-2.59;84.93;94944.75;5068004;28;20115;-71
2021/01/15 06:53:34;;;;;;;34.15;14.32;;;;;;;-2.55;84.61;94945.25;5066546;28;20050;-71
2021/01/15 06:56:03;;;;;;;25.27;12.82;;;;;;;-2.62;85.29;94950.13;5064948;28;20044;-71
2021/01/15 06:58:36;;;;;;;24.58;11.90;;;;;;;-2.71;84.95;94951.81;5065668;28;20501;-70
2021/01/15 07:01:16;;;;;;;19.37;9.27;;;;;;;-2.65;84.49;94945.31;5067833;28;20037;-70
2021/01/15 07:04:11;;;;;;;18.13;10.85;;;;;;;-2.69;84.59;94944.81;5066135;28;20482;-70
2021/01/15 07:06:38;;;;;;;18.23;9.35;;;;;;;-2.71;84.75;94953.56;5067770;28;20549;-70
2021/01/15 07:09:07;;;;;;;15.68;8.60;;;;;;;-2.73;83.88;94958.00;5068460;28;20043;-71
2021/01/15 07:11:40;;;;;;;15.25;8.65;;;;;;;-2.65;84.22;94978.47;5066165;28;20579;-71
2021/01/15 07:14:07;;;;;;;16.67;8.70;;;;;;;-2.66;83.93;94974.31;5066555;28;20127;-71
2021/01/15 07:16:38;;;;;;;14.38;8.45;;;;;;;-2.73;84.28;94978.41;5065206;28;20135;-70
2021/01/15 07:19:05;;;;;;;15.50;8.93;;;;;;;-2.62;84.14;94980.72;5067741;28;20029;-70
2021/01/15 07:22:00;;;;;;;15.93;8.60;;;;;;;-2.59;84.10;94985.53;5066992;28;20046;-70
2021/01/15 07:24:28;;;;;;;24.42;10.80;;;;;;;-2.54;84.59;94983.38;5067365;28;20040;-71
2021/01/15 07:26:55;;;;;;;21.60;11.93;;;;;;;-2.59;84.51;94990.66;5066262;28;20049;-71
2021/01/15 07:29:24;;;;;;;23.35;10.52;;;;;;;-2.73;84.39;94968.22;5067323;28;20398;-71
2021/01/15 07:31:55;;;;;;;25.15;11.48;;;;;;;-2.57;84.64;94993.84;5066406;28;20044;-70
2021/01/15 07:34:24;;;;;;;17.55;10.35;;;;;;;-2.62;83.93;94993.47;5066461;28;20040;-69
2021/01/15 07:36:51;;;;;;;18.95;10.65;;;;;;;-2.63;84.08;95009.75;5065157;28;20061;-70
2021/01/15 07:39:22;;;;;;;21.20;12.20;;;;;;;-2.68;84.69;94991.53;5066094;28;20060;-71
2021/01/15 07:41:52;;;;;;;23.85;12.88;;;;;;;-2.64;84.44;95013.22;5067207;28;20047;-70
2021/01/15 07:44:22;;;;;;;24.50;12.30;;;;;;;-2.62;83.73;95021.53;5083558;28;20076;-71
2021/01/15 07:46:52;;;;;;;31.55;16.42;;;;;;;-2.53;84.26;95015.56;5069548;28;20424;-71
2021/01/15 07:49:19;;;;;;;27.98;13.48;;;;;;;-2.62;83.39;95010.53;5069732;28;20044;-70
2021/01/15 07:52:05;;;;;;;28.95;12.40;;;;;;;-2.45;83.44;95017.38;5069267;28;20055;-71
2021/01/15 07:55:00;;;;;;;28.88;13.70;;;;;;;-2.42;83.31;95022.19;5086838;28;20036;-71
2021/01/15 08:01:07;;;;;;;34.63;14.98;;;;;;;-2.32;84.19;95032.34;4925372;29;20052;-71
2021/01/15 08:03:54;;;;;;;27.35;14.43;;;;;;;-2.25;84.18;95023.16;4927996;29;20040;-71
2021/01/15 08:06:21;;;;;;;25.95;14.38;;;;;;;-2.20;83.56;95031.13;4911758;29;20052;-71
2021/01/15 08:09:13;;;;;;;28.55;13.85;;;;;;;-2.19;83.05;95027.66;4927609;29;20043;-71
2021/01/15 08:11:56;;;;;;;28.95;14.05;;;;;;;-2.14;83.45;95034.88;4925564;29;20047;-71
2021/01/15 08:14:23;;;;;;;32.85;18.65;;;;;;;-2.25;82.19;95012.13;4925178;29;20056;-71
2021/01/15 08:16:50;;;;;;;31.20;17.85;;;;;;;-2.21;82.01;95019.34;4911456;29;20552;-71
2021/01/15 08:19:18;;;;;;;18.90;11.95;;;;;;;-2.20;81.12;95023.47;4927696;29;20102;-71
2021/01/15 08:21:46;;;;;;;34.67;18.08;;;;;;;-2.08;81.40;95043.69;4911792;29;20209;-70
2021/01/15 08:24:20;;;;;;;22.92;13.57;;;;;;;-2.14;81.78;95050.97;4911438;29;20433;-70
2021/01/15 08:26:50;;;;;;;24.08;14.75;;;;;;;-2.17;82.63;95056.38;4927698;29;20074;-70
2021/01/15 08:29:17;;;;;;;37.55;20.38;;;;;;;-2.11;82.84;95054.97;4925703;29;20056;-70
2021/01/15 08:31:45;;;;;;;52.55;28.20;;;;;;;-2.01;81.06;95044.72;4927196;29;20056;-71
2021/01/15 08:34:13;;;;;;;37.65;19.15;;;;;;;-1.98;81.24;95054.59;4927283;29;20047;-70
2021/01/15 08:36:42;;;;;;;32.85;18.33;;;;;;;-2.05;81.59;95053.59;4930016;28;20547;-70
2021/01/15 08:39:09;;;;;;;70.10;30.13;;;;;;;-1.95;81.83;95054.31;5086025;28;20032;-71
2021/01/15 08:41:36;;;;;;;54.05;25.33;;;;;;;-1.95;81.08;95055.09;5068605;28;20052;-71
2021/01/15 08:44:04;;;;;;;42.65;24.00;;;;;;;-1.97;81.12;95051.13;5085366;28;20129;-70
2021/01/15 08:46:32;;;;;;;78.47;36.47;;;;;;;-1.81;81.66;95050.44;5068317;28;20040;-70
2021/01/15 08:49:00;;;;;;;34.20;19.23;;;;;;;-1.62;80.73;95054.53;5086227;28;20058;-71
2021/01/15 08:51:32;;;;;;;33.83;17.33;;;;;;;-1.54;79.69;95054.59;5067994;28;20040;-70
2021/01/15 08:54:04;;;;;;;68.32;29.88;;;;;;;-1.27;79.75;95057.94;5085845;28;20436;-70
2021/01/15 08:56:48;;;;;;;40.33;24.05;;;;;;;-1.15;79.29;95046.50;5067812;28;21091;-71
2021/01/15 08:59:28;;;;;;;28.90;15.25;;;;;;;-0.94;77.91;95041.00;5085121;28;20028;-72
2021/01/15 09:02:05;;;;;;;32.72;17.45;;;;;;;-0.84;77.21;95028.09;5085552;28;20135;-72
2021/01/15 09:04:33;;;;;;;23.48;12.60;;;;;;;-0.66;75.61;95031.34;5084458;28;20040;-71
2021/01/15 09:07:06;;;;;;;20.55;12.80;;;;;;;-0.56;74.68;95048.31;5067796;28;20504;-71
2021/01/15 09:09:35;;;;;;;23.52;12.55;;;;;;;-0.54;74.39;95044.66;5085189;28;20105;-71
2021/01/15 09:12:04;;;;;;;18.73;10.75;;;;;;;-0.61;74.69;95041.91;5085987;28;20036;-72
2021/01/15 09:14:35;;;;;;;45.63;16.67;;;;;;;-0.57;74.97;95039.03;5085760;28;20501;-72
2021/01/15 09:17:06;;;;;;;30.30;13.48;;;;;;;-0.55;75.07;95037.91;5068508;28;20048;-72
2021/01/15 09:19:34;;;;;;;41.67;17.50;;;;;;;-0.57;75.58;95044.16;5086304;28;20397;-71
2021/01/15 09:22:04;;;;;;;24.73;14.73;;;;;;;-0.63;75.01;95025.91;5068481;28;20699;-71
2021/01/15 09:24:31;;;;;;;49.53;26.83;;;;;;;-0.37;73.93;95029.31;5085783;28;20028;-70
2021/01/15 09:27:00;;;;;;;35.53;20.77;;;;;;;-0.39;74.54;95024.34;5085336;28;20093;-71
2021/01/15 09:29:27;;;;;;;25.92;14.48;;;;;;;-0.41;73.34;95033.94;5086036;28;20040;-71
2021/01/15 09:31:55;;;;;;;22.92;11.40;;;;;;;-0.46;72.08;95023.38;5085762;28;20042;-72
2021/01/15 09:34:23;;;;;;;34.20;13.68;;;;;;;-0.52;73.32;95031.66;5086597;28;20048;-70
2021/01/15 09:36:51;;;;;;;14.77;10.00;;;;;;;-0.62;73.21;95017.25;5067746;28;20672;-71
2021/01/15 09:39:19;;;;;;;17.38;10.90;;;;;;;-0.49;72.76;95031.38;5067407;28;20145;-71
2021/01/15 09:41:48;;;;;;;13.40;8.48;;;;;;;-0.64;71.86;95011.50;5086179;28;20051;-70
2021/01/15 09:44:16;;;;;;;34.90;18.33;;;;;;;-0.38;72.29;95028.50;5084478;28;20056;-69
2021/01/15 09:46:44;;;;;;;19.40;11.02;;;;;;;-0.47;70.53;95026.88;5085897;28;20032;-69
2021/01/15 09:49:11;;;;;;;17.48;10.18;;;;;;;-0.74;71.47;95018.50;5084845;28;20118;-70
2021/01/15 09:51:39;;;;;;;18.15;9.05;;;;;;;-0.57;71.13;95027.03;5068072;28;20093;-71
2021/01/15 09:54:05;;;;;;;26.52;12.98;;;;;;;-0.61;70.32;95008.66;5084861;28;20040;-71
2021/01/15 09:56:43;;;;;;;18.35;10.50;;;;;;;-0.66;69.83;95010.88;5065726;28;20048;-72
2021/01/15 09:59:11;;;;;;;20.30;11.48;;;;;;;-0.60;70.49;95015.34;5087404;28;20056;-70
2021/01/15 10:01:39;;;;;;;18.20;9.77;;;;;;;-0.55;70.17;95019.22;5071540;28;20042;-69
2021/01/15 10:04:06;;;;;;;13.73;8.80;;;;;;;-0.58;70.68;95007.50;5089235;28;20115;-70
2021/01/15 10:06:40;;;;;;;19.50;9.52;;;;;;;-0.45;70.71;95007.88;5089672;28;20476;-71
2021/01/15 10:09:08;;;;;;;37.50;19.52;;;;;;;-0.39;71.72;95007.22;5088472;28;20123;-72
2021/01/15 10:11:37;;;;;;;36.45;18.23;;;;;;;-0.45;70.86;95002.75;5088860;28;20042;-72
2021/01/15 10:14:08;;;;;;;22.52;13.05;;;;;;;-0.56;70.29;94994.56;5071497;28;20044;-72
2021/01/15 10:16:38;;;;;;;45.72;21.80;;;;;;;-0.61;69.84;94985.63;5069722;28;20422;-71
2021/01/15 10:19:05;;;;;;;53.90;26.58;;;;;;;-0.48;69.48;94992.81;5071356;28;20684;-70
2021/01/15 10:21:32;;;;;;;35.92;18.45;;;;;;;-0.54;68.09;94997.75;5089246;28;20044;-70
2021/01/15 10:24:00;;;;;;;19.85;10.73;;;;;;;-0.76;68.09;94989.72;5088871;28;20085;-70
2021/01/15 10:26:34;;;;;;;29.08;16.73;;;;;;;-0.72;69.03;94980.81;5089282;28;20066;-70
2021/01/15 10:29:06;;;;;;;13.82;9.05;;;;;;;-0.64;68.08;94985.94;5088261;28;20509;-71
2021/01/15 10:31:54;;;;;;;33.22;12.88;;;;;;;-0.52;68.21;94977.94;5089057;28;20120;-70
2021/01/15 10:34:22;;;;;;;26.85;10.82;;;;;;;-0.58;68.49;94966.59;5088883;28;20037;-71
2021/01/15 10:36:50;;;;;;;21.98;8.82;;;;;;;-0.45;66.87;94976.34;5088605;28;20047;-70
2021/01/15 10:39:18;;;;;;;20.42;9.10;;;;;;;-0.46;66.49;94975.56;5089309;28;20506;-70
2021/01/15 10:41:46;;;;;;;21.58;10.35;;;;;;;-0.40;67.47;94951.91;5088511;28;20032;-70
2021/01/15 10:44:19;;;;;;;21.85;11.05;;;;;;;-0.32;67.39;94955.41;5087519;28;20048;-70
2021/01/15 10:46:49;;;;;;;16.23;9.98;;;;;;;-0.17;67.30;94947.88;5088536;28;20048;-70
2021/01/15 10:49:18;;;;;;;21.52;11.35;;;;;;;-0.08;67.55;94942.59;5088436;28;20085;-70
2021/01/15 10:51:46;;;;;;;12.70;7.28;;;;;;;0.14;67.79;94941.09;5088597;28;20401;-70
2021/01/15 10:54:13;;;;;;;16.90;10.02;;;;;;;0.51;67.77;94937.16;5088373;28;20059;-70
2021/01/15 10:56:45;;;;;;;17.42;8.05;;;;;;;1.44;62.89;94952.72;5068913;28;20120;-70
2021/01/15 10:59:12;;;;;;;13.85;7.25;;;;;;;1.71;61.29;94944.50;5087025;28;20032;-70
2021/01/15 11:01:41;;;;;;;16.20;9.23;;;;;;;1.24;61.58;94947.22;5087095;28;20047;-70
2021/01/15 11:04:09;;;;;;;15.65;9.38;;;;;;;0.91;61.36;94948.22;5088608;28;20040;-70
2021/01/15 11:06:43;;;;;;;19.08;11.20;;;;;;;0.54;62.12;94946.28;5088173;28;20119;-70
2021/01/15 11:09:16;;;;;;;18.15;10.07;;;;;;;0.45;62.16;94935.28;5085457;28;20038;-70
2021/01/15 11:11:59;;;;;;;11.48;7.50;;;;;;;0.25;61.31;94934.84;5071745;28;20040;-70
2021/01/15 11:14:25;;;;;;;23.83;9.75;;;;;;;0.33;62.49;94939.16;5087734;28;20063;-70
2021/01/15 11:16:54;;;;;;;20.70;10.57;;;;;;;0.32;61.64;94932.41;5087691;28;20040;-70
2021/01/15 11:19:20;;;;;;;12.07;7.53;;;;;;;0.43;62.18;94934.63;5087496;28;20036;-70
2021/01/15 11:21:47;;;;;;;15.00;8.63;;;;;;;0.59;63.08;94927.84;5088283;28;20479;-71
2021/01/15 11:24:14;;;;;;;26.25;12.48;;;;;;;0.77;61.35;94925.84;5088285;28;20576;-69
2021/01/15 11:26:40;;;;;;;11.63;7.72;;;;;;;0.85;60.86;94920.69;5088029;28;20040;-70
2021/01/15 11:29:09;;;;;;;20.98;11.68;;;;;;;1.21;60.37;94911.69;5088066;28;20123;-70
2021/01/15 11:31:38;;;;;;;15.23;8.57;;;;;;;1.36;59.48;94904.03;5087985;28;20128;-70
2021/01/15 11:34:05;;;;;;;38.70;15.55;;;;;;;1.50;58.77;94906.63;5086785;28;20036;-70
2021/01/15 11:36:31;;;;;;;19.08;9.68;;;;;;;1.40;58.42;94900.13;5070141;28;20048;-69
2021/01/15 11:39:04;;;;;;;20.90;9.95;;;;;;;1.65;57.72;94898.97;5069899;28;20077;-70
2021/01/15 11:41:30;;;;;;;19.00;8.15;;;;;;;1.75;57.06;94897.91;5088205;28;20131;-69
2021/01/15 11:43:57;;;;;;;12.35;6.60;;;;;;;1.64;56.26;94892.25;5086583;28;20102;-70